createdAt,value
2023-03-05T00:01:34.592Z,57.02
2023-03-05T00:04:09.663Z,56.91
2023-03-05T00:06:42.406Z,57.61
2023-03-05T00:09:14.915Z,57.64
2023-03-05T00:11:47.434Z,57.57
2023-03-05T00:14:19.799Z,57.58
2023-03-05T00:16:52.228Z,57.43
2023-03-05T00:19:24.734Z,57.26
2023-03-05T00:21:59.251Z,57.07
2023-03-05T00:24:31.702Z,56.82
2023-03-05T00:27:05.030Z,57.34
2023-03-05T00:29:37.427Z,57.71
2023-03-05T00:32:11.495Z,57.94
2023-03-05T00:34:43.967Z,58.31
2023-03-05T00:37:16.428Z,58.27
2023-03-05T00:39:49.054Z,58.07
2023-03-05T00:42:21.579Z,58.17
2023-03-05T00:44:53.974Z,58.44
2023-03-05T00:47:26.678Z,58.83
2023-03-05T00:49:59.508Z,58.84
2023-03-05T00:52:31.954Z,58.47
2023-03-05T00:55:04.783Z,58.18
2023-03-05T00:57:37.686Z,57.95
2023-03-05T01:00:13.511Z,57.68
2023-03-05T01:02:46.389Z,57.65
2023-03-05T01:05:19.249Z,57.45
2023-03-05T01:07:55.106Z,57.58
2023-03-05T01:10:29.174Z,57.57
2023-03-05T01:13:01.744Z,57.47
2023-03-05T01:15:34.693Z,57.24
2023-03-05T01:18:07.360Z,56.85
2023-03-05T01:20:39.750Z,56.58
2023-03-05T01:23:12.220Z,56.41
2023-03-05T01:25:45.360Z,56.40
2023-03-05T01:28:18.207Z,56.47
2023-03-05T01:30:50.692Z,56.55
2023-03-05T01:33:23.459Z,56.72
2023-03-05T01:35:56.138Z,56.80
2023-03-05T01:38:28.641Z,56.76
2023-03-05T01:41:01.010Z,56.95
2023-03-05T01:43:33.831Z,56.94
2023-03-05T01:46:38.168Z,57.01
2023-03-05T01:49:18.142Z,57.05
2023-03-05T01:51:57.750Z,57.33
2023-03-05T01:54:34.826Z,57.36
2023-03-05T01:57:12.277Z,57.36
2023-03-05T01:59:47.302Z,57.24
2023-03-05T02:02:22.306Z,57.29
2023-03-05T02:04:57.174Z,57.03
2023-03-05T02:07:31.130Z,56.84
2023-03-05T02:10:03.648Z,56.71
2023-03-05T02:12:36.146Z,57.29
2023-03-05T02:15:10.753Z,57.31
2023-03-05T02:17:41.724Z,57.41
2023-03-05T02:20:17.162Z,56.90
2023-03-05T02:22:49.763Z,56.74
2023-03-05T02:25:24.221Z,57.06
2023-03-05T02:28:01.210Z,57.50
2023-03-05T02:30:34.691Z,57.86
2023-03-05T02:33:07.629Z,58.14
2023-03-05T02:35:40.770Z,58.40
2023-03-05T02:38:13.936Z,58.52
2023-03-05T02:40:46.729Z,58.24
2023-03-05T02:43:19.507Z,58.15
2023-03-05T02:45:52.045Z,57.95
2023-03-05T02:48:24.598Z,58.19
2023-03-05T02:50:58.077Z,57.86
2023-03-05T02:53:31.106Z,57.89
2023-03-05T02:56:03.732Z,58.69
2023-03-05T02:58:39.337Z,59.12
2023-03-05T03:01:13.122Z,59.07
2023-03-05T03:03:45.512Z,58.86
2023-03-05T03:06:18.075Z,58.20
2023-03-05T03:08:50.479Z,58.35
2023-03-05T03:11:22.963Z,58.18
2023-03-05T03:13:55.328Z,58.26
2023-03-05T03:16:27.958Z,59.03
2023-03-05T03:19:00.891Z,59.06
2023-03-05T03:21:33.400Z,59.11
2023-03-05T03:24:06.520Z,59.05
2023-03-05T03:26:38.932Z,59.02
2023-03-05T03:29:11.404Z,58.89
2023-03-05T03:31:45.770Z,59.40
2023-03-05T03:34:19.012Z,58.77
2023-03-05T03:36:52.970Z,58.58
2023-03-05T03:39:25.794Z,58.80
2023-03-05T03:41:58.268Z,58.85
2023-03-05T03:44:30.675Z,58.72
2023-03-05T03:47:03.249Z,59.03
2023-03-05T03:49:35.665Z,59.28
2023-03-05T03:52:08.664Z,59.42
2023-03-05T03:54:41.558Z,59.00
2023-03-05T03:57:14.075Z,59.37
2023-03-05T03:59:46.518Z,59.07
2023-03-05T04:02:19.374Z,59.16
2023-03-05T04:04:51.805Z,59.21
2023-03-05T04:07:24.199Z,59.41
2023-03-05T04:09:56.836Z,59.62
2023-03-05T04:12:29.429Z,59.57
2023-03-05T04:15:01.783Z,59.79
2023-03-05T04:17:35.750Z,59.91
2023-03-05T04:20:11.106Z,59.93
2023-03-05T04:22:43.595Z,60.15
2023-03-05T04:25:16.132Z,60.07
2023-03-05T04:27:48.547Z,60.27
2023-03-05T04:30:21.085Z,60.36
2023-03-05T04:32:54.003Z,60.71
2023-03-05T04:35:26.612Z,60.85
2023-03-05T04:38:01.338Z,60.67
2023-03-05T04:40:32.129Z,60.59
2023-03-05T04:43:04.959Z,60.71
2023-03-05T04:45:40.458Z,60.90
2023-03-05T04:48:14.037Z,61.03
2023-03-05T04:50:46.483Z,61.34
2023-03-05T04:53:18.926Z,61.43
2023-03-05T04:55:55.461Z,61.65
2023-03-05T04:58:28.305Z,61.91
2023-03-05T05:01:06.164Z,62.13
2023-03-05T05:03:39.024Z,62.49
2023-03-05T05:06:13.285Z,62.31
2023-03-05T05:08:45.907Z,62.18
2023-03-05T05:11:18.546Z,62.54
2023-03-05T05:13:50.986Z,62.88
2023-03-05T05:16:23.344Z,62.50
2023-03-05T05:18:55.787Z,62.67
2023-03-05T05:21:29.760Z,62.93
2023-03-05T05:24:02.211Z,62.81
2023-03-05T05:26:34.587Z,63.32
2023-03-05T05:29:07.506Z,63.50
2023-03-05T05:31:40.030Z,63.97
2023-03-05T05:34:13.280Z,64.03
2023-03-05T05:36:45.826Z,64.11
2023-03-05T05:39:20.185Z,64.30
2023-03-05T05:41:53.050Z,64.20
2023-03-05T05:44:25.467Z,64.72
2023-03-05T05:46:58.253Z,65.10
2023-03-05T05:49:31.531Z,65.28
2023-03-05T05:52:03.919Z,65.77
2023-03-05T05:54:36.726Z,65.29
2023-03-05T05:57:09.544Z,64.94
2023-03-05T05:59:42.045Z,64.62
2023-03-05T06:02:17.241Z,65.13
2023-03-05T06:04:50.465Z,65.81
2023-03-05T06:07:22.968Z,66.44
2023-03-05T06:09:55.547Z,66.87
2023-03-05T06:12:33.215Z,67.12
2023-03-05T06:15:09.856Z,67.31
2023-03-05T06:17:42.269Z,67.06
2023-03-05T06:20:16.262Z,66.93
2023-03-05T06:22:48.704Z,66.68
2023-03-05T06:25:21.327Z,66.14
2023-03-05T06:27:53.825Z,65.82
2023-03-05T06:30:27.019Z,65.53
2023-03-05T06:33:00.591Z,64.99
2023-03-05T06:35:33.487Z,65.47
2023-03-05T06:38:06.254Z,65.29
2023-03-05T06:40:39.947Z,64.95
2023-03-05T06:43:12.689Z,65.96
2023-03-05T06:45:45.232Z,66.14
2023-03-05T06:48:17.745Z,65.96
2023-03-05T06:50:50.687Z,66.60
2023-03-05T06:53:24.497Z,66.38
2023-03-05T06:55:57.244Z,66.06
2023-03-05T06:58:31.947Z,66.82
2023-03-05T07:01:06.315Z,66.77
2023-03-05T07:03:39.444Z,66.62
2023-03-05T07:06:14.409Z,66.47
2023-03-05T07:08:47.065Z,66.57
2023-03-05T07:11:21.228Z,66.11
2023-03-05T07:13:53.719Z,66.41
2023-03-05T07:16:27.647Z,66.55
2023-03-05T07:19:02.903Z,66.97
2023-03-05T07:21:39.555Z,66.62
2023-03-05T07:24:13.694Z,67.29
2023-03-05T07:26:47.998Z,68.07
2023-03-05T07:29:21.446Z,69.14
2023-03-05T07:31:54.206Z,69.12
2023-03-05T07:34:27.301Z,69.24
2023-03-05T07:37:00.333Z,69.79
2023-03-05T07:39:32.839Z,70.16
2023-03-05T07:42:05.465Z,70.48
2023-03-05T07:44:42.634Z,70.83
2023-03-05T07:47:15.918Z,70.92
2023-03-05T07:49:48.317Z,71.24
2023-03-05T07:52:20.817Z,71.52
2023-03-05T07:54:53.398Z,71.28
2023-03-05T07:57:25.861Z,70.38
2023-03-05T07:59:58.856Z,70.87
2023-03-05T08:02:31.357Z,70.88
2023-03-05T08:05:04.812Z,71.02
2023-03-05T08:07:37.895Z,71.71
2023-03-05T08:10:12.635Z,70.88
2023-03-05T08:12:43.384Z,70.27
2023-03-05T08:15:15.985Z,70.80
2023-03-05T08:17:48.366Z,70.20
2023-03-05T08:20:21.185Z,69.83
2023-03-05T08:22:53.968Z,69.85
2023-03-05T08:25:26.347Z,69.93
2023-03-05T08:27:58.943Z,69.86
2023-03-05T08:30:31.376Z,70.17
2023-03-05T08:33:03.823Z,70.15
2023-03-05T08:35:36.334Z,69.85
2023-03-05T08:38:09.261Z,69.75
2023-03-05T08:40:43.123Z,69.72
2023-03-05T08:43:15.675Z,69.19
2023-03-05T08:45:49.681Z,68.79
2023-03-05T08:48:22.301Z,68.42
2023-03-05T08:50:55.129Z,68.20
2023-03-05T08:53:27.719Z,68.29
2023-03-05T08:56:01.036Z,68.33
2023-03-05T08:58:33.918Z,68.80
2023-03-05T09:01:07.265Z,68.56
2023-03-05T09:03:39.958Z,68.56
2023-03-05T09:06:13.746Z,68.64
2023-03-05T09:08:46.780Z,68.60
2023-03-05T09:11:19.505Z,68.57
2023-03-05T09:13:52.173Z,68.50
2023-03-05T09:16:24.661Z,68.17
2023-03-05T09:18:57.463Z,67.82
2023-03-05T09:21:29.914Z,67.76
2023-03-05T09:24:02.440Z,67.58
2023-03-05T09:26:34.943Z,66.87
2023-03-05T09:29:08.711Z,66.41
2023-03-05T09:31:41.453Z,66.54
2023-03-05T09:34:15.200Z,66.51
2023-03-05T09:36:47.758Z,66.15
2023-03-05T09:39:20.684Z,65.58
2023-03-05T09:42:20.002Z,65.83
2023-03-05T09:45:03.986Z,66.05
2023-03-05T09:47:51.694Z,66.23
2023-03-05T09:50:38.753Z,66.02
2023-03-05T09:53:26.930Z,65.15
2023-03-05T09:56:04.478Z,64.86
2023-03-05T09:58:40.614Z,65.16
2023-03-05T10:01:17.396Z,64.57
2023-03-05T10:03:58.590Z,63.91
2023-03-05T10:06:33.528Z,62.30
2023-03-05T10:09:14.837Z,62.46
2023-03-05T10:11:54.862Z,60.47
2023-03-05T10:14:31.850Z,59.15
2023-03-05T10:17:25.768Z,59.04
2023-03-05T10:20:23.916Z,57.15
2023-03-05T10:23:24.825Z,56.93
2023-03-05T10:26:05.038Z,56.59
2023-03-05T10:28:49.638Z,56.77
2023-03-05T10:31:35.653Z,56.42
2023-03-05T10:34:41.107Z,55.84
2023-03-05T10:37:29.327Z,56.31
2023-03-05T10:40:21.023Z,57.22
2023-03-05T10:43:06.287Z,57.76
2023-03-05T10:45:43.895Z,57.44
2023-03-05T10:48:24.404Z,57.15
2023-03-05T10:51:01.492Z,56.52
2023-03-05T10:53:38.168Z,57.88
2023-03-05T10:56:14.305Z,58.02
2023-03-05T10:58:47.102Z,58.71
2023-03-05T11:01:28.356Z,58.97
2023-03-05T11:04:03.706Z,58.84
2023-03-05T11:06:41.101Z,59.47
2023-03-05T11:09:24.192Z,59.31
2023-03-05T11:12:14.619Z,59.54
2023-03-05T11:15:02.893Z,59.49
2023-03-05T11:17:38.949Z,60.08
2023-03-05T11:20:34.000Z,60.35
2023-03-05T11:23:11.499Z,60.25
2023-03-05T11:25:59.491Z,60.86
2023-03-05T11:28:35.708Z,61.09
2023-03-05T11:31:22.209Z,60.54
2023-03-05T11:34:01.414Z,60.31
2023-03-05T11:36:35.988Z,60.29
2023-03-05T11:39:17.377Z,59.86
2023-03-05T11:41:53.708Z,59.43
2023-03-05T11:44:30.554Z,58.86
2023-03-05T11:47:12.384Z,58.56
2023-03-05T11:49:48.909Z,59.05
2023-03-05T11:52:27.270Z,58.83
2023-03-05T11:55:09.160Z,58.65
2023-03-05T11:57:49.996Z,58.93
2023-03-05T12:00:28.627Z,57.45
2023-03-05T12:03:05.562Z,56.90
2023-03-05T12:05:41.465Z,57.09
2023-03-05T12:08:18.120Z,56.25
2023-03-05T12:10:50.570Z,56.33
2023-03-05T12:13:29.962Z,56.98
2023-03-05T12:16:18.511Z,56.89
2023-03-05T12:19:00.112Z,56.33
2023-03-05T12:21:38.040Z,56.48
2023-03-05T12:24:43.182Z,56.57
2023-03-05T12:27:32.918Z,56.74
2023-03-05T12:30:07.059Z,56.45
2023-03-05T12:33:02.997Z,56.51
2023-03-05T12:35:38.289Z,56.74
2023-03-05T12:38:34.813Z,56.80
2023-03-05T12:41:40.541Z,56.66
2023-03-05T12:44:21.168Z,56.11
2023-03-05T12:47:20.167Z,55.97
2023-03-05T12:49:53.474Z,55.61
2023-03-05T12:52:29.662Z,55.52
2023-03-05T12:55:16.530Z,55.48
2023-03-05T12:57:54.029Z,56.48
2023-03-05T13:00:34.029Z,57.35
2023-03-05T13:03:13.712Z,57.78
2023-03-05T13:05:54.287Z,58.17
2023-03-05T13:08:30.487Z,58.56
2023-03-05T13:11:06.024Z,58.20
2023-03-05T13:13:43.848Z,58.65
2023-03-05T13:16:22.197Z,58.74
2023-03-05T13:18:57.391Z,59.09
2023-03-05T13:21:32.517Z,59.50
2023-03-05T13:24:06.164Z,59.58
2023-03-05T13:26:41.981Z,59.91
2023-03-05T13:29:16.867Z,60.33
2023-03-05T13:31:52.060Z,60.70
2023-03-05T13:34:37.399Z,61.59
2023-03-05T13:37:21.539Z,61.17
2023-03-05T13:39:56.884Z,61.13
2023-03-05T13:42:32.373Z,60.78
2023-03-05T13:45:06.443Z,60.30
2023-03-05T13:47:39.790Z,59.36
2023-03-05T13:50:28.122Z,59.40
2023-03-05T13:53:18.225Z,58.92
2023-03-05T13:55:53.026Z,58.40
2023-03-05T13:58:41.375Z,58.18
2023-03-05T14:01:19.579Z,58.19
2023-03-05T14:03:56.082Z,57.68
2023-03-05T14:06:31.106Z,57.90
2023-03-05T14:09:10.606Z,58.09
2023-03-05T14:11:43.450Z,58.45
2023-03-05T14:14:21.235Z,56.79
2023-03-05T14:16:53.792Z,56.72
2023-03-05T14:19:38.300Z,57.04
2023-03-05T14:22:35.669Z,57.01
2023-03-05T14:25:23.460Z,56.67
2023-03-05T14:27:56.097Z,56.44
2023-03-05T14:30:30.965Z,56.94
2023-03-05T14:33:04.564Z,56.89
2023-03-05T14:35:38.106Z,57.24
2023-03-05T14:38:19.498Z,57.19
2023-03-05T14:40:52.030Z,56.83
2023-03-05T14:43:24.794Z,57.10
2023-03-05T14:45:57.398Z,57.52
2023-03-05T14:48:29.800Z,57.63
2023-03-05T14:51:02.580Z,57.77
2023-03-05T14:53:42.005Z,57.59
2023-03-05T14:56:23.866Z,57.79
2023-03-05T14:58:57.552Z,58.45
2023-03-05T15:01:30.211Z,59.05
2023-03-05T15:04:02.797Z,58.92
2023-03-05T15:06:38.656Z,58.59
2023-03-05T15:09:17.733Z,58.80
2023-03-05T15:11:50.447Z,58.51
2023-03-05T15:14:22.815Z,58.20
2023-03-05T15:16:55.396Z,58.01
2023-03-05T15:19:27.879Z,57.94
2023-03-05T15:22:00.587Z,57.85
2023-03-05T15:24:33.018Z,57.59
2023-03-05T15:27:06.642Z,58.21
2023-03-05T15:29:39.190Z,58.29
2023-03-05T15:32:12.434Z,58.34
2023-03-05T15:34:45.122Z,58.05
2023-03-05T15:37:17.634Z,58.23
2023-03-05T15:39:50.009Z,58.46
2023-03-05T15:42:23.122Z,58.71
2023-03-05T15:44:55.518Z,58.65
2023-03-05T15:47:28.136Z,58.51
2023-03-05T15:50:00.956Z,58.04
2023-03-05T15:52:33.598Z,57.87
2023-03-05T15:55:07.024Z,57.04
2023-03-05T15:57:46.425Z,56.51
2023-03-05T16:00:22.625Z,56.27
2023-03-05T16:02:57.592Z,55.88
2023-03-05T16:05:31.110Z,55.53
2023-03-05T16:08:04.352Z,55.19
2023-03-05T16:10:39.717Z,54.88
2023-03-05T16:13:17.182Z,55.07
2023-03-05T16:15:53.228Z,55.21
2023-03-05T16:18:26.838Z,55.32
2023-03-05T16:20:59.736Z,55.58
2023-03-05T16:23:32.215Z,55.02
2023-03-05T16:26:05.043Z,55.14
2023-03-05T16:28:38.700Z,55.47
2023-03-05T16:31:11.603Z,55.43
2023-03-05T16:33:44.335Z,55.62
2023-03-05T16:36:25.258Z,55.45
2023-03-05T16:39:00.349Z,54.93
2023-03-05T16:41:33.499Z,54.88
2023-03-05T16:44:07.522Z,55.45
2023-03-05T16:46:42.473Z,55.02
2023-03-05T16:49:16.075Z,55.03
2023-03-05T16:51:49.295Z,55.32
2023-03-05T16:54:23.063Z,56.75
2023-03-05T16:57:00.860Z,58.82
2023-03-05T16:59:34.589Z,59.50
2023-03-05T17:02:08.045Z,60.41
2023-03-05T17:04:41.185Z,60.89
2023-03-05T17:07:14.519Z,61.33
2023-03-05T17:09:48.147Z,62.32
2023-03-05T17:12:21.335Z,63.29
2023-03-05T17:14:54.053Z,63.94
2023-03-05T17:17:26.535Z,64.48
2023-03-05T17:20:00.107Z,65.14
2023-03-05T17:22:32.702Z,65.04
2023-03-05T17:25:05.940Z,64.79
2023-03-05T17:27:38.905Z,64.76
2023-03-05T17:30:15.055Z,64.94
2023-03-05T17:32:47.776Z,64.98
2023-03-05T17:35:23.840Z,64.60
2023-03-05T17:37:56.864Z,64.24
2023-03-05T17:40:29.698Z,64.17
2023-03-05T17:43:02.298Z,63.68
2023-03-05T17:45:35.526Z,63.18
2023-03-05T17:48:09.144Z,63.47
2023-03-05T17:50:42.211Z,63.34
2023-03-05T17:53:15.120Z,63.42
2023-03-05T17:55:47.755Z,62.81
2023-03-05T17:58:21.129Z,62.87
2023-03-05T18:00:54.306Z,63.17
2023-03-05T18:03:26.864Z,63.01
2023-03-05T18:05:59.799Z,63.21
2023-03-05T18:08:32.236Z,63.91
2023-03-05T18:11:04.947Z,64.27
2023-03-05T18:13:37.724Z,64.17
2023-03-05T18:16:10.860Z,64.17
2023-03-05T18:18:44.627Z,64.52
2023-03-05T18:21:22.303Z,64.38
2023-03-05T18:23:55.389Z,63.72
2023-03-05T18:26:28.379Z,63.82
2023-03-05T18:29:01.133Z,63.42
2023-03-05T18:31:34.744Z,63.12
2023-03-05T18:34:07.575Z,62.85
2023-03-05T18:36:40.434Z,62.74
2023-03-05T18:39:16.313Z,63.06
2023-03-05T18:41:49.799Z,62.78
2023-03-05T18:44:22.525Z,62.93
2023-03-05T18:46:55.100Z,63.09
2023-03-05T18:49:29.124Z,62.62
2023-03-05T18:52:01.862Z,62.78
2023-03-05T18:54:34.665Z,63.01
2023-03-05T18:57:07.952Z,62.89
2023-03-05T18:59:42.563Z,63.03
2023-03-05T19:02:18.362Z,63.25
2023-03-05T19:04:51.063Z,63.22
2023-03-05T19:07:25.856Z,63.25
2023-03-05T19:10:02.414Z,63.10
2023-03-05T19:12:38.455Z,63.39
2023-03-05T19:15:26.677Z,63.23
2023-03-05T19:18:00.751Z,63.10
2023-03-05T19:20:35.300Z,63.02
2023-03-05T19:23:07.092Z,63.17
2023-03-05T19:25:41.083Z,63.47
2023-03-05T19:28:14.090Z,63.23
2023-03-05T19:30:48.920Z,63.25
2023-03-05T19:33:24.173Z,63.23
2023-03-05T19:35:57.616Z,62.80
2023-03-05T19:38:30.518Z,62.69
2023-03-05T19:41:03.220Z,62.59
2023-03-05T19:43:35.853Z,62.72
2023-03-05T19:46:10.016Z,62.95
2023-03-05T19:48:46.662Z,63.65
2023-03-05T19:51:21.333Z,64.80
2023-03-05T19:53:52.589Z,64.91
2023-03-05T19:56:24.977Z,65.38
2023-03-05T19:58:57.849Z,65.03
2023-03-05T20:01:30.678Z,64.75
2023-03-05T20:04:05.737Z,64.79
2023-03-05T20:06:38.272Z,64.83
2023-03-05T20:09:11.190Z,64.60
2023-03-05T20:11:43.907Z,65.12
2023-03-05T20:14:16.702Z,65.86
2023-03-05T20:16:49.233Z,66.01
2023-03-05T20:19:22.040Z,66.49
2023-03-05T20:21:54.737Z,66.64
2023-03-05T20:24:27.522Z,66.41
2023-03-05T20:27:00.702Z,65.98
2023-03-05T20:29:33.680Z,66.01
2023-03-05T20:32:06.946Z,65.80
2023-03-05T20:34:40.078Z,65.39
2023-03-05T20:37:12.591Z,65.01
2023-03-05T20:39:45.485Z,65.25
2023-03-05T20:42:18.386Z,65.37
2023-03-05T20:44:51.001Z,65.09
2023-03-05T20:47:46.554Z,65.25
2023-03-05T20:50:19.888Z,65.32
2023-03-05T20:52:52.609Z,65.29
2023-03-05T20:55:28.833Z,65.25
2023-03-05T20:58:01.813Z,65.19
2023-03-05T21:00:35.017Z,64.90
2023-03-05T21:03:09.502Z,65.07
2023-03-05T21:05:41.260Z,64.85
2023-03-05T21:08:13.899Z,64.50
2023-03-05T21:10:47.085Z,64.31
2023-03-05T21:13:19.608Z,64.09
2023-03-05T21:15:52.591Z,64.00
2023-03-05T21:18:28.211Z,63.87
2023-03-05T21:21:00.706Z,63.99
2023-03-05T21:23:33.392Z,64.47
2023-03-05T21:26:06.552Z,64.60
2023-03-05T21:28:40.097Z,64.59
2023-03-05T21:31:16.048Z,64.79
2023-03-05T21:33:49.062Z,65.49
2023-03-05T21:36:22.200Z,65.50
2023-03-05T21:38:54.781Z,65.47
2023-03-05T21:41:27.718Z,65.37
2023-03-05T21:44:04.143Z,65.65
2023-03-05T21:46:37.594Z,65.76
2023-03-05T21:49:10.341Z,65.53
2023-03-05T21:52:11.716Z,65.69
2023-03-05T21:54:44.464Z,65.61
2023-03-05T21:57:17.095Z,65.76
2023-03-05T21:59:49.596Z,65.64
2023-03-05T22:02:23.451Z,65.27
2023-03-05T22:04:56.041Z,64.92
2023-03-05T22:07:29.356Z,64.78
2023-03-05T22:10:01.793Z,64.49
2023-03-05T22:13:12.779Z,64.15
2023-03-05T22:15:47.897Z,63.77
2023-03-05T22:18:21.841Z,63.48
2023-03-05T22:20:54.942Z,63.74
2023-03-05T22:23:30.738Z,63.65
2023-03-05T22:26:05.474Z,63.57
2023-03-05T22:28:39.078Z,63.59
2023-03-05T22:31:12.114Z,63.57
2023-03-05T22:33:44.640Z,63.72
2023-03-05T22:36:18.310Z,63.64
2023-03-05T22:38:51.902Z,63.53
2023-03-05T22:41:24.786Z,63.21
2023-03-05T22:43:57.307Z,63.19
2023-03-05T22:46:29.693Z,63.47
2023-03-05T22:49:02.112Z,63.51
2023-03-05T22:51:34.551Z,63.34
2023-03-05T22:54:07.326Z,63.17
2023-03-05T22:56:39.822Z,62.71
2023-03-05T22:59:12.663Z,62.66
2023-03-05T23:01:45.244Z,62.99
2023-03-05T23:04:49.672Z,62.76
2023-03-05T23:07:23.696Z,62.68
2023-03-05T23:09:59.423Z,62.66
2023-03-05T23:12:35.295Z,62.49
2023-03-05T23:15:11.656Z,62.47
2023-03-05T23:17:44.369Z,62.60
2023-03-05T23:20:17.932Z,63.00
2023-03-05T23:22:53.025Z,63.05
2023-03-05T23:25:28.019Z,63.14
2023-03-05T23:28:01.270Z,63.17
2023-03-05T23:30:37.307Z,63.06
2023-03-05T23:33:14.787Z,63.09
2023-03-05T23:35:54.509Z,62.95
2023-03-05T23:38:28.702Z,62.69
2023-03-05T23:41:03.548Z,62.74
2023-03-05T23:43:34.282Z,62.66
2023-03-05T23:46:13.279Z,62.44
2023-03-05T23:48:45.747Z,62.27
2023-03-05T23:51:19.332Z,62.20
2023-03-05T23:53:51.844Z,62.38
2023-03-05T23:56:24.332Z,62.37
2023-03-05T23:59:00.549Z,62.30
